Time;durP1;ratioP1;P1;durP2;ratioP2;P2;SDS_P1;SDS_P2;PMS_P1;PMS_P2;Temp;Humidity;BMP_temperature;BMP_pressure;BME280_temperature;BME280_humidity;BME280_pressure;Samples;Min_cycle;Max_cycle;Signal;HPM_P1;HPM_P2
2021/08/05 00:00:05;;;;;;;5.05;3.28;;;;;;;21.11;55.92;101088.28;5034232;28;20057;-64
2021/08/05 00:02:30;;;;;;;4.60;3.10;;;;;;;21.10;55.86;101085.78;5034137;28;20025;-64
2021/08/05 00:04:56;;;;;;;5.43;3.30;;;;;;;21.10;55.94;101083.97;5033259;28;20427;-63
2021/08/05 00:07:21;;;;;;;4.68;3.00;;;;;;;21.11;55.94;101088.28;5034270;28;20021;-64
2021/08/05 00:09:46;;;;;;;4.60;3.20;;;;;;;21.10;56.05;101085.78;5033876;28;20152;-65
2021/08/05 00:12:13;;;;;;;5.40;3.20;;;;;;;21.09;56.18;101084.91;5033284;28;20460;-64
2021/08/05 00:14:40;;;;;;;5.07;3.17;;;;;;;21.09;56.04;101084.91;5033981;28;20465;-64
2021/08/05 00:17:06;;;;;;;5.20;3.22;;;;;;;21.09;55.93;101082.28;5033633;28;20156;-63
2021/08/05 00:19:32;;;;;;;4.55;3.20;;;;;;;21.09;55.85;101084.91;5033393;28;20116;-64
2021/08/05 00:21:57;;;;;;;4.78;3.05;;;;;;;21.07;56.13;101076.28;5033695;28;20536;-64
2021/08/05 00:24:22;;;;;;;4.97;3.40;;;;;;;21.08;55.90;101074.47;5033814;28;20029;-64
2021/08/05 00:26:47;;;;;;;5.47;3.22;;;;;;;21.08;55.83;101075.31;5032784;28;20294;-64
2021/08/05 00:29:13;;;;;;;4.60;3.30;;;;;;;21.07;55.94;101072.81;5033948;28;20021;-63
2021/08/05 00:31:38;;;;;;;5.32;3.45;;;;;;;21.07;56.02;101068.34;5033678;28;20262;-64
2021/08/05 00:34:03;;;;;;;4.68;3.25;;;;;;;21.06;56.02;101068.47;5032605;28;20025;-64
2021/08/05 00:36:29;;;;;;;4.57;3.20;;;;;;;21.07;55.86;101073.63;5032895;28;20033;-64
2021/08/05 00:38:54;;;;;;;4.80;3.20;;;;;;;21.05;55.94;101065.00;5033282;28;20032;-63
2021/08/05 00:41:19;;;;;;;6.05;3.60;;;;;;;21.04;56.11;101060.66;5032248;28;20746;-64
2021/08/05 00:43:45;;;;;;;5.03;3.53;;;;;;;21.05;56.10;101065.00;5033479;28;20022;-64
2021/08/05 00:46:10;;;;;;;5.47;3.55;;;;;;;21.05;55.89;101061.53;5032561;28;20026;-64
2021/08/05 00:48:35;;;;;;;4.97;3.77;;;;;;;21.05;56.03;101062.34;5033473;28;20029;-64
2021/08/05 00:51:00;;;;;;;4.82;3.22;;;;;;;21.05;55.85;101061.53;5033062;28;20275;-64
2021/08/05 00:53:27;;;;;;;4.50;3.27;;;;;;;21.05;55.95;101058.88;5032142;28;20049;-64
2021/08/05 00:55:52;;;;;;;4.80;3.38;;;;;;;21.04;56.04;101050.06;5032804;28;20737;-64
2021/08/05 00:58:17;;;;;;;4.82;3.38;;;;;;;21.04;55.96;101046.59;5033385;28;20140;-64
2021/08/05 01:00:48;;;;;;;4.93;3.40;;;;;;;21.01;55.81;101034.44;5032325;28;20025;-64
2021/08/05 01:03:26;;;;;;;5.45;3.50;;;;;;;21.03;55.91;101037.81;5033341;28;20075;-64
2021/08/05 01:06:10;;;;;;;5.00;3.50;;;;;;;21.03;56.05;101040.47;5032577;28;20470;-64
2021/08/05 01:08:40;;;;;;;5.10;3.40;;;;;;;21.02;55.84;101046.72;5032446;28;20037;-64
2021/08/05 01:11:21;;;;;;;4.90;3.17;;;;;;;21.03;55.99;101051.06;5032891;28;20033;-64
2021/08/05 01:13:54;;;;;;;4.55;3.40;;;;;;;21.02;55.84;101047.56;5031801;28;20061;-63
2021/08/05 01:16:23;;;;;;;4.22;3.00;;;;;;;21.01;55.83;101040.59;5032138;28;20104;-63
2021/08/05 01:18:55;;;;;;;4.60;3.50;;;;;;;21.02;56.00;101044.06;5032415;28;20102;-64
2021/08/05 01:21:44;;;;;;;4.88;3.40;;;;;;;21.01;56.00;101039.75;5032166;28;20024;-63
2021/08/05 01:24:12;;;;;;;5.35;3.75;;;;;;;21.00;55.96;101041.56;5032636;28;20461;-64
2021/08/05 01:26:50;;;;;;;5.65;3.35;;;;;;;20.99;56.01;101039.88;5032668;28;20033;-64
2021/08/05 01:29:18;;;;;;;4.63;3.42;;;;;;;21.00;56.05;101035.44;5031959;28;20381;-63
2021/08/05 01:31:45;;;;;;;5.15;3.30;;;;;;;21.00;56.13;101044.22;5031573;28;20045;-63
2021/08/05 01:34:15;;;;;;;5.38;3.83;;;;;;;20.99;55.92;101042.53;5032634;28;20469;-64
2021/08/05 01:36:47;;;;;;;5.82;3.40;;;;;;;20.99;56.20;101041.69;5031876;28;20457;-63
2021/08/05 01:39:13;;;;;;;4.93;3.25;;;;;;;20.98;55.97;101032.91;5032527;28;20022;-64
2021/08/05 01:41:40;;;;;;;4.60;3.40;;;;;;;20.99;55.99;101036.41;5032431;28;20030;-63
2021/08/05 01:44:07;;;;;;;5.10;3.40;;;;;;;20.96;56.04;101024.25;5031602;28;20026;-63
2021/08/05 01:46:37;;;;;;;5.30;3.70;;;;;;;20.98;56.14;101024.97;5032406;28;20418;-63
2021/08/05 01:49:02;;;;;;;5.30;3.55;;;;;;;20.99;56.06;101025.81;5032244;28;20087;-64
2021/08/05 01:51:28;;;;;;;5.07;3.60;;;;;;;20.99;55.87;101028.44;5031799;28;20393;-64
2021/08/05 01:53:54;;;;;;;4.80;3.33;;;;;;;20.96;56.15;101021.59;5031226;28;20128;-64
2021/08/05 01:56:21;;;;;;;5.05;3.60;;;;;;;20.95;56.08;101019.94;5032265;28;20105;-64
2021/08/05 01:58:49;;;;;;;5.00;3.60;;;;;;;20.98;56.03;101024.97;5031261;28;20018;-63
2021/08/05 02:01:19;;;;;;;5.93;3.67;;;;;;;20.94;56.05;101018.28;5032380;28;20030;-63
2021/08/05 02:04:10;;;;;;;5.03;3.63;;;;;;;20.96;56.08;101018.97;5031359;28;20084;-63
2021/08/05 02:06:45;;;;;;;5.28;3.67;;;;;;;20.97;55.88;101023.28;5032172;28;20032;-63
2021/08/05 02:09:26;;;;;;;5.43;3.22;;;;;;;20.95;56.05;101014.66;5032504;28;20108;-62
2021/08/05 02:11:54;;;;;;;4.97;3.47;;;;;;;20.92;55.96;101012.28;5031182;28;20449;-64
2021/08/05 02:14:21;;;;;;;4.60;3.53;;;;;;;20.96;55.96;101012.84;5032057;28;20489;-63
2021/08/05 02:16:49;;;;;;;5.40;3.70;;;;;;;20.96;56.39;101010.19;5032029;28;20087;-64
2021/08/05 02:19:15;;;;;;;4.95;3.55;;;;;;;20.95;56.03;101012.00;5031301;28;20029;-64
2021/08/05 02:21:43;;;;;;;5.25;3.70;;;;;;;20.95;56.23;101003.19;5032016;28;20033;-63
2021/08/05 02:24:09;;;;;;;4.82;3.63;;;;;;;20.95;56.16;101008.50;5032299;28;20026;-62
2021/08/05 02:26:36;;;;;;;5.15;3.60;;;;;;;20.93;56.14;100998.03;5031282;28;20472;-63
2021/08/05 02:29:01;;;;;;;5.28;3.90;;;;;;;20.93;56.00;101000.69;5031800;28;20029;-64
2021/08/05 02:31:27;;;;;;;4.57;3.45;;;;;;;20.93;56.28;100990.09;5031988;28;20124;-63
2021/08/05 02:33:57;;;;;;;4.93;3.83;;;;;;;20.94;56.18;101002.38;5031125;28;20044;-63
2021/08/05 02:36:22;;;;;;;5.18;3.70;;;;;;;20.94;56.18;100996.25;5032242;28;20021;-63
2021/08/05 02:38:51;;;;;;;5.53;3.85;;;;;;;20.91;55.99;100997.34;5030972;28;20465;-64
2021/08/05 02:41:16;;;;;;;5.30;4.00;;;;;;;20.91;56.06;100988.56;5032210;28;20022;-64
2021/08/05 02:43:43;;;;;;;5.20;4.10;;;;;;;20.93;56.21;100992.75;5032097;28;20025;-64
2021/08/05 02:46:10;;;;;;;5.68;4.15;;;;;;;20.91;56.41;100989.41;5031087;28;20422;-62
2021/08/05 02:48:37;;;;;;;4.88;3.60;;;;;;;20.91;56.14;100988.56;5032427;28;20076;-63
2021/08/05 02:51:04;;;;;;;4.93;3.72;;;;;;;20.92;56.08;100988.44;5031886;28;20014;-62
2021/08/05 02:53:30;;;;;;;4.70;3.60;;;;;;;20.93;56.24;100983.97;5031098;28;20107;-63
2021/08/05 02:56:02;;;;;;;5.10;3.70;;;;;;;20.92;56.06;100988.44;5032417;28;20485;-61
2021/08/05 02:58:28;;;;;;;5.35;4.00;;;;;;;20.90;56.12;100984.25;5031883;28;20026;-64
2021/08/05 03:00:56;;;;;;;4.55;3.40;;;;;;;20.92;56.17;100977.84;5030701;28;20083;-63
2021/08/05 03:03:23;;;;;;;5.60;4.15;;;;;;;20.88;56.29;100973.78;5031814;28;20390;-63
2021/08/05 03:05:51;;;;;;;5.60;3.85;;;;;;;20.89;56.10;100972.81;5034405;28;20026;-63
2021/08/05 03:08:16;;;;;;;5.38;3.60;;;;;;;20.89;56.24;100978.13;5034854;28;20049;-63
2021/08/05 03:10:44;;;;;;;5.13;3.70;;;;;;;20.91;56.30;100977.97;5035379;28;20032;-65
2021/08/05 03:13:09;;;;;;;5.22;3.90;;;;;;;20.91;56.20;100981.47;5035345;28;20021;-64
2021/08/05 03:15:35;;;;;;;5.00;3.80;;;;;;;20.90;56.14;100979.78;5034740;28;20109;-64
2021/08/05 03:18:00;;;;;;;4.97;3.65;;;;;;;20.91;56.08;100976.16;5035075;28;20033;-64
2021/08/05 03:20:26;;;;;;;5.30;3.85;;;;;;;20.91;56.28;100970.03;5035251;28;20033;-64
2021/08/05 03:22:51;;;;;;;5.32;3.83;;;;;;;20.92;56.47;100974.34;5034186;28;20473;-64
2021/08/05 03:25:16;;;;;;;4.72;3.47;;;;;;;20.90;56.09;100973.66;5035050;28;20025;-64
2021/08/05 03:27:42;;;;;;;5.25;4.10;;;;;;;20.90;56.34;100963.88;5035196;28;20030;-65
2021/08/05 03:30:09;;;;;;;4.90;3.90;;;;;;;20.90;56.19;100968.34;5034137;28;20037;-64
2021/08/05 03:32:34;;;;;;;5.18;3.65;;;;;;;20.89;56.23;100967.53;5035163;28;20017;-63
2021/08/05 03:34:59;;;;;;;4.65;3.50;;;;;;;20.82;56.32;100955.81;5034123;28;20124;-64
2021/08/05 03:37:25;;;;;;;5.05;3.63;;;;;;;20.87;56.31;100974.78;5035180;28;20052;-63
2021/08/05 03:39:53;;;;;;;6.05;3.92;;;;;;;20.89;56.18;100972.00;5034423;28;20446;-64
2021/08/05 03:42:19;;;;;;;6.18;3.95;;;;;;;20.87;56.30;100966.84;5034042;28;20057;-64
2021/08/05 03:44:44;;;;;;;4.78;3.67;;;;;;;20.88;56.22;100972.97;5034541;28;20056;-63
2021/08/05 03:47:15;;;;;;;5.07;3.88;;;;;;;20.88;56.29;100970.31;5034747;28;20029;-64
2021/08/05 03:49:40;;;;;;;5.32;3.72;;;;;;;20.88;56.37;100968.50;5034141;28;20029;-64
2021/08/05 03:52:14;;;;;;;5.10;3.90;;;;;;;20.87;56.24;100964.19;5034402;28;20428;-64
2021/08/05 03:54:40;;;;;;;5.78;3.40;;;;;;;20.87;56.28;100964.19;5034506;28;20287;-64
2021/08/05 03:57:05;;;;;;;4.75;3.50;;;;;;;20.87;56.23;100963.31;5033678;28;20034;-64
2021/08/05 03:59:30;;;;;;;5.27;3.93;;;;;;;20.86;56.22;100965.16;5034817;28;20321;-64
2021/08/05 04:01:56;;;;;;;5.05;3.90;;;;;;;20.87;56.16;100965.97;5034411;28;20294;-62
2021/08/05 04:04:21;;;;;;;4.90;3.60;;;;;;;20.86;56.21;100962.50;5033881;28;20393;-65
2021/08/05 04:06:46;;;;;;;5.00;3.33;;;;;;;20.87;56.35;100973.94;5034127;28;20029;-65
2021/08/05 04:09:12;;;;;;;4.88;3.53;;;;;;;20.87;56.47;100965.97;5034675;28;20025;-65
2021/08/05 04:11:37;;;;;;;5.65;4.30;;;;;;;20.86;56.22;100965.16;5033866;28;20025;-63
2021/08/05 04:14:02;;;;;;;4.60;3.50;;;;;;;20.86;56.06;100962.50;5034348;28;20413;-63
2021/08/05 04:16:28;;;;;;;6.30;3.80;;;;;;;20.84;56.31;100961.81;5033855;28;20087;-63
2021/08/05 04:18:56;;;;;;;4.90;3.80;;;;;;;20.86;56.25;100967.81;5033266;28;20029;-64
2021/08/05 04:21:22;;;;;;;5.80;3.88;;;;;;;20.83;56.28;100960.97;5034286;28;20022;-66
2021/08/05 04:23:47;;;;;;;5.63;3.80;;;;;;;20.84;55.89;100952.03;5034068;28;20043;-64
2021/08/05 04:26:12;;;;;;;5.35;3.97;;;;;;;20.85;56.32;100958.16;5033407;28;20164;-63
2021/08/05 04:28:38;;;;;;;5.00;3.90;;;;;;;20.84;56.20;100945.91;5034407;28;20057;-63
2021/08/05 04:31:03;;;;;;;5.20;3.88;;;;;;;20.83;56.36;100944.25;5033997;28;20162;-65
2021/08/05 04:33:34;;;;;;;5.32;3.92;;;;;;;20.84;56.33;100949.41;5033367;28;20496;-64
2021/08/05 04:36:00;;;;;;;5.25;4.03;;;;;;;20.83;56.31;100952.19;5033667;28;20112;-64
2021/08/05 04:38:28;;;;;;;5.32;4.13;;;;;;;20.83;56.40;100953.00;5033259;28;20151;-64
2021/08/05 04:40:53;;;;;;;5.85;3.85;;;;;;;20.83;56.27;100953.00;5033559;28;20033;-66
2021/08/05 04:43:24;;;;;;;5.88;4.00;;;;;;;20.81;56.35;100951.50;5034176;28;20125;-65
2021/08/05 04:45:52;;;;;;;5.47;4.03;;;;;;;20.84;56.21;100956.53;5033076;28;20092;-65
2021/08/05 04:48:17;;;;;;;6.97;4.20;;;;;;;20.83;56.14;100953.00;5033896;28;20032;-63
2021/08/05 04:50:48;;;;;;;5.05;3.90;;;;;;;20.82;56.27;100956.66;5034111;28;20025;-63
2021/08/05 04:53:16;;;;;;;5.38;4.10;;;;;;;20.83;56.22;100954.84;5032780;28;20091;-63
2021/08/05 04:55:42;;;;;;;4.95;3.50;;;;;;;20.83;56.35;100954.84;5033791;28;20033;-65
2021/08/05 04:58:10;;;;;;;6.13;4.15;;;;;;;20.82;56.22;100956.66;5033217;28;20426;-64
2021/08/05 05:00:38;;;;;;;5.22;4.20;;;;;;;20.82;56.35;100954.00;5032629;28;20017;-63
2021/08/05 05:03:04;;;;;;;5.00;3.80;;;;;;;20.83;56.54;100952.19;5033020;28;20537;-64
2021/08/05 05:05:30;;;;;;;5.22;3.88;;;;;;;20.83;56.32;100952.19;5033151;28;20029;-63
2021/08/05 05:07:55;;;;;;;5.47;3.88;;;;;;;20.82;56.40;100948.72;5031976;28;20109;-66
2021/08/05 05:10:22;;;;;;;5.28;3.88;;;;;;;20.81;56.21;100944.38;5033339;28;20029;-64
2021/08/05 05:12:51;;;;;;;5.45;4.10;;;;;;;20.81;56.43;100949.69;5032806;28;20091;-64
2021/08/05 05:15:19;;;;;;;5.85;4.15;;;;;;;20.81;56.33;100944.38;5032434;28;20036;-64
2021/08/05 05:17:45;;;;;;;4.95;3.65;;;;;;;20.83;56.38;100949.53;5033279;28;20373;-64
2021/08/05 05:20:11;;;;;;;5.45;3.95;;;;;;;20.82;56.38;100951.34;5032903;28;20127;-63
2021/08/05 05:22:37;;;;;;;5.43;3.72;;;;;;;20.79;56.45;100941.03;5031995;28;20108;-64
2021/08/05 05:25:05;;;;;;;5.20;3.80;;;;;;;20.82;56.40;100946.06;5032631;28;20385;-64
2021/08/05 05:27:30;;;;;;;5.22;4.10;;;;;;;20.82;56.50;100951.34;5031243;28;20116;-64
2021/08/05 05:29:59;;;;;;;5.38;3.85;;;;;;;20.81;56.49;100941.72;5031150;28;20116;-64
2021/08/05 05:32:25;;;;;;;5.25;4.22;;;;;;;20.79;56.55;100934.88;5032607;28;20025;-64
2021/08/05 05:34:51;;;;;;;5.40;4.00;;;;;;;20.82;56.59;100942.56;5031225;28;20552;-64
2021/08/05 05:37:16;;;;;;;5.95;4.72;;;;;;;20.82;56.41;100934.59;5032813;28;20036;-65
2021/08/05 05:39:41;;;;;;;4.60;3.65;;;;;;;20.82;56.48;100942.56;5032737;28;20068;-65
2021/08/05 05:42:07;;;;;;;4.70;3.60;;;;;;;20.81;56.74;100944.38;5031453;28;20021;-63
2021/08/05 05:44:32;;;;;;;5.28;4.03;;;;;;;20.81;56.68;100938.25;5032340;28;20481;-64
2021/08/05 05:46:58;;;;;;;5.18;4.13;;;;;;;20.80;56.61;100937.41;5032177;28;20117;-64
2021/08/05 05:49:23;;;;;;;4.68;3.67;;;;;;;20.82;56.66;100926.66;5031806;28;20030;-63
2021/08/05 05:51:48;;;;;;;5.35;3.80;;;;;;;20.81;56.73;100925.84;5031144;28;20029;-64
2021/08/05 05:54:14;;;;;;;6.70;4.22;;;;;;;20.80;56.48;100920.69;5032299;28;20159;-64
2021/08/05 05:56:39;;;;;;;6.00;3.80;;;;;;;20.81;56.61;100928.50;5031723;28;20035;-64
2021/08/05 05:59:04;;;;;;;4.65;3.58;;;;;;;20.81;56.69;100932.97;5032075;28;20026;-64
2021/08/05 06:01:29;;;;;;;4.97;3.93;;;;;;;20.82;56.68;100924.00;5032469;28;20021;-65
2021/08/05 06:03:55;;;;;;;5.18;3.55;;;;;;;20.81;56.73;100935.59;5031078;28;20750;-64
2021/08/05 06:06:20;;;;;;;5.43;3.72;;;;;;;20.79;56.50;100919.84;5032230;28;20163;-64
2021/08/05 06:08:45;;;;;;;4.70;3.67;;;;;;;20.81;56.67;100936.44;5031775;28;20386;-64
2021/08/05 06:11:10;;;;;;;5.30;3.88;;;;;;;20.81;56.77;100939.09;5031433;28;20273;-64
2021/08/05 06:13:36;;;;;;;5.10;3.97;;;;;;;20.83;56.72;100944.25;5032039;28;20022;-64
2021/08/05 06:16:01;;;;;;;6.03;4.28;;;;;;;20.82;56.67;100943.41;5031764;28;20349;-64
2021/08/05 06:18:26;;;;;;;5.32;4.10;;;;;;;20.82;56.60;100947.84;5031345;28;20053;-64
2021/08/05 06:20:52;;;;;;;5.68;4.15;;;;;;;20.79;56.69;100932.25;5031636;28;20104;-64
2021/08/05 06:23:17;;;;;;;5.93;4.07;;;;;;;20.81;56.81;100938.25;5031317;28;20044;-64
2021/08/05 06:25:42;;;;;;;5.28;3.80;;;;;;;20.81;56.82;100935.59;5031363;28;20112;-64
2021/08/05 06:28:10;;;;;;;5.07;3.80;;;;;;;20.81;56.86;100941.72;5031834;28;20048;-62
2021/08/05 06:30:35;;;;;;;6.38;3.72;;;;;;;20.82;56.66;100939.91;5031840;28;20091;-61
2021/08/05 06:33:01;;;;;;;5.40;4.10;;;;;;;20.81;56.86;100939.09;5031015;28;20486;-61
2021/08/05 06:35:29;;;;;;;6.18;4.00;;;;;;;20.81;56.96;100943.56;5031867;28;20028;-62
2021/08/05 06:37:54;;;;;;;5.45;3.97;;;;;;;20.81;56.94;100935.59;5030875;28;20072;-60
2021/08/05 06:40:22;;;;;;;7.25;3.72;;;;;;;20.80;56.93;100934.75;5034553;28;20049;-62
2021/08/05 06:42:48;;;;;;;4.95;3.50;;;;;;;20.81;57.00;100939.09;5034274;28;20419;-61
2021/08/05 06:45:13;;;;;;;4.53;3.30;;;;;;;20.82;57.02;100934.59;5034870;28;20224;-62
2021/08/05 06:47:46;;;;;;;4.40;3.10;;;;;;;20.81;57.08;100923.19;5035580;28;20033;-62
2021/08/05 06:50:13;;;;;;;5.00;3.63;;;;;;;20.86;57.32;100927.25;5035705;28;20561;-63
2021/08/05 06:52:38;;;;;;;4.40;3.22;;;;;;;20.88;57.26;100925.28;5034894;28;20065;-65
2021/08/05 06:55:04;;;;;;;6.03;3.80;;;;;;;20.87;57.28;100926.25;5034967;28;20068;-64
2021/08/05 06:57:30;;;;;;;6.13;3.70;;;;;;;20.89;57.25;100930.44;5035343;28;20034;-63
2021/08/05 06:59:56;;;;;;;7.13;3.97;;;;;;;20.88;57.39;100931.41;5034491;28;20021;-64
2021/08/05 07:02:21;;;;;;;5.22;3.53;;;;;;;20.89;57.52;100929.63;5035824;28;20033;-62
2021/08/05 07:04:47;;;;;;;5.15;3.35;;;;;;;20.91;57.44;100933.78;5035347;28;20152;-63
2021/08/05 07:07:12;;;;;;;5.20;3.27;;;;;;;20.92;57.54;100926.66;5035000;28;20030;-63
2021/08/05 07:09:37;;;;;;;4.95;3.28;;;;;;;20.92;57.38;100926.66;5035344;28;20297;-62
2021/08/05 07:12:03;;;;;;;5.37;3.13;;;;;;;20.92;57.43;100924.84;5034927;28;20525;-61
2021/08/05 07:14:28;;;;;;;5.65;3.67;;;;;;;20.94;57.62;100919.41;5034937;28;20342;-64
2021/08/05 07:16:53;;;;;;;5.57;3.75;;;;;;;20.94;57.50;100922.06;5035164;28;20036;-63
2021/08/05 07:19:19;;;;;;;5.10;3.63;;;;;;;20.94;57.55;100920.25;5035085;28;20475;-62
2021/08/05 07:21:44;;;;;;;7.38;3.55;;;;;;;20.93;57.77;100918.56;5034247;28;20025;-61
2021/08/05 07:24:12;;;;;;;5.22;3.60;;;;;;;20.94;57.85;100920.25;5035343;28;20025;-63
2021/08/05 07:26:37;;;;;;;6.25;3.70;;;;;;;20.96;57.67;100923.59;5034889;28;20022;-62
2021/08/05 07:29:03;;;;;;;6.53;3.78;;;;;;;20.97;57.78;100925.25;5033992;28;20447;-63
2021/08/05 07:31:28;;;;;;;4.63;3.40;;;;;;;20.96;57.99;100920.09;5034930;28;20028;-63
2021/08/05 07:33:54;;;;;;;7.60;3.30;;;;;;;20.98;58.00;100915.50;5036412;28;20104;-62
2021/08/05 07:36:20;;;;;;;4.82;3.30;;;;;;;20.99;57.98;100918.00;5038465;28;20036;-63
2021/08/05 07:38:45;;;;;;;5.65;3.50;;;;;;;20.99;57.97;100914.53;5039032;28;20104;-62
2021/08/05 07:41:11;;;;;;;5.75;3.72;;;;;;;21.02;58.13;100917.72;5039735;28;20025;-61
2021/08/05 07:43:36;;;;;;;6.07;3.75;;;;;;;21.04;58.35;100911.44;5040960;28;20045;-60
2021/08/05 07:46:07;;;;;;;4.95;3.72;;;;;;;20.96;58.35;100898.91;5040914;28;20084;-62
2021/08/05 07:48:33;;;;;;;4.88;3.30;;;;;;;21.08;58.28;100911.03;5041135;28;20021;-62
2021/08/05 07:50:59;;;;;;;5.65;3.35;;;;;;;21.09;58.41;100912.69;5041130;28;20017;-63
2021/08/05 07:53:30;;;;;;;4.72;3.08;;;;;;;21.12;58.30;100909.75;5039008;28;20033;-62
2021/08/05 07:55:55;;;;;;;5.38;3.60;;;;;;;21.13;58.07;100907.94;5034401;28;20026;-62
2021/08/05 07:58:24;;;;;;;4.38;3.08;;;;;;;21.13;57.97;100905.31;5037807;28;20037;-62
2021/08/05 08:00:49;;;;;;;5.30;3.22;;;;;;;21.14;58.17;100902.50;5035449;28;20022;-60
2021/08/05 08:03:15;;;;;;;5.63;3.25;;;;;;;21.17;58.31;100901.38;5035722;28;20454;-61
2021/08/05 08:05:42;;;;;;;4.45;3.08;;;;;;;21.19;57.97;100899.44;5036078;28;20033;-60
2021/08/05 08:08:08;;;;;;;6.50;3.33;;;;;;;21.21;58.07;100900.13;5034824;28;20116;-61
2021/08/05 08:10:34;;;;;;;5.50;3.38;;;;;;;21.22;58.03;100888.56;5035328;28;20084;-62
2021/08/05 08:12:59;;;;;;;4.97;2.97;;;;;;;21.23;57.94;100892.03;5035023;28;20029;-62
2021/08/05 08:15:26;;;;;;;5.05;3.33;;;;;;;21.27;58.12;100882.78;5035902;28;20715;-63
2021/08/05 08:17:53;;;;;;;5.85;3.80;;;;;;;21.24;57.93;100877.78;5034795;28;20040;-62
2021/08/05 08:20:18;;;;;;;6.75;3.38;;;;;;;21.29;57.96;100886.97;5035273;28;20415;-61
2021/08/05 08:22:43;;;;;;;5.15;3.33;;;;;;;21.29;57.88;100884.31;5034257;28;20112;-61
2021/08/05 08:25:09;;;;;;;5.35;3.42;;;;;;;21.32;57.86;100885.88;5033879;28;20017;-66
2021/08/05 08:27:35;;;;;;;4.65;3.03;;;;;;;21.32;57.79;100889.34;5034534;28;20082;-61
2021/08/05 08:30:03;;;;;;;4.78;3.08;;;;;;;21.33;57.75;100887.50;5033843;28;20377;-63
2021/08/05 08:32:29;;;;;;;5.85;3.05;;;;;;;21.37;57.76;100894.22;5033052;28;20116;-64
2021/08/05 08:34:54;;;;;;;4.57;2.95;;;;;;;21.35;57.76;100881.09;5034375;28;20064;-67
2021/08/05 08:37:19;;;;;;;5.10;3.30;;;;;;;21.38;57.69;100885.28;5034255;28;20488;-63
2021/08/05 08:39:45;;;;;;;4.53;3.00;;;;;;;21.37;57.48;100881.78;5033447;28;20029;-63
2021/08/05 08:42:13;;;;;;;8.00;3.20;;;;;;;21.36;57.73;100884.56;5033993;28;20127;-62
2021/08/05 08:44:38;;;;;;;5.07;3.30;;;;;;;21.37;57.49;100880.97;5033146;28;20031;-61
2021/08/05 08:47:06;;;;;;;5.57;3.10;;;;;;;21.37;57.29;100881.78;5034441;28;20389;-61
2021/08/05 08:49:32;;;;;;;5.72;3.00;;;;;;;21.35;57.51;100883.75;5034750;28;20037;-60
2021/08/05 08:51:58;;;;;;;5.00;3.10;;;;;;;21.38;57.31;100872.84;5034010;28;20462;-60
2021/08/05 08:54:23;;;;;;;4.70;3.03;;;;;;;21.41;57.27;100884.97;5033444;28;20061;-61
2021/08/05 08:56:52;;;;;;;5.88;3.00;;;;;;;21.43;57.24;100880.38;5033457;28;20044;-61
2021/08/05 08:59:19;;;;;;;5.88;3.05;;;;;;;21.43;57.21;100874.22;5032684;28;20549;-61
2021/08/05 09:01:45;;;;;;;4.95;3.10;;;;;;;21.42;57.31;100873.41;5032932;28;20044;-61
2021/08/05 09:04:11;;;;;;;4.28;2.78;;;;;;;21.43;57.25;100876.88;5033349;28;20025;-63
2021/08/05 09:06:36;;;;;;;4.68;2.95;;;;;;;21.43;57.25;100879.53;5032278;28;20044;-64
2021/08/05 09:09:05;;;;;;;6.13;2.90;;;;;;;21.41;57.19;100870.88;5032991;28;20109;-62
2021/08/05 09:11:31;;;;;;;4.40;2.80;;;;;;;21.41;57.02;100879.66;5033102;28;20068;-61
2021/08/05 09:13:56;;;;;;;5.03;2.95;;;;;;;21.43;57.16;100876.88;5032824;28;20025;-61
2021/08/05 09:16:28;;;;;;;5.00;2.70;;;;;;;21.44;57.16;100870.59;5033168;28;20104;-62
2021/08/05 09:18:54;;;;;;;4.38;2.63;;;;;;;21.43;57.14;100871.56;5032911;28;20033;-59
2021/08/05 09:21:26;;;;;;;4.53;2.70;;;;;;;21.42;57.11;100873.41;5032285;28;20377;-62
2021/08/05 09:24:04;;;;;;;5.20;2.90;;;;;;;21.45;57.16;100859.03;5033009;28;20437;-62
2021/08/05 09:26:44;;;;;;;4.93;2.85;;;;;;;21.44;56.95;100855.53;5032872;28;20021;-63
2021/08/05 09:29:17;;;;;;;4.30;2.70;;;;;;;21.49;57.21;100857.75;5033010;28;20137;-64
2021/08/05 09:32:00;;;;;;;4.00;2.78;;;;;;;21.48;56.90;100853.44;5032792;28;20017;-64
2021/08/05 09:34:36;;;;;;;5.03;2.80;;;;;;;21.50;56.92;100854.97;5032056;28;20473;-63
2021/08/05 09:37:06;;;;;;;3.78;2.53;;;;;;;21.51;56.83;100847.88;5032465;28;20108;-64
2021/08/05 09:39:34;;;;;;;5.38;2.55;;;;;;;21.52;56.64;100844.22;5032945;28;20032;-63
2021/08/05 09:42:02;;;;;;;4.00;2.60;;;;;;;21.52;56.80;100846.88;5031851;28;20151;-63
2021/08/05 09:44:41;;;;;;;4.30;2.50;;;;;;;21.50;56.61;100831.09;5032735;28;20029;-63
2021/08/05 09:47:07;;;;;;;5.63;2.83;;;;;;;21.54;56.67;100839.63;5032205;28;20033;-64
2021/08/05 09:49:37;;;;;;;3.90;2.65;;;;;;;21.55;56.58;100838.63;5031999;28;20513;-63
2021/08/05 09:52:05;;;;;;;4.40;2.63;;;;;;;21.54;56.54;100831.66;5032036;28;20622;-62
2021/08/05 09:54:38;;;;;;;4.10;2.85;;;;;;;21.55;56.48;100836.81;5032172;28;20061;-63
2021/08/05 09:57:04;;;;;;;4.40;2.88;;;;;;;21.56;55.99;100829.69;5031860;28;20033;-61
2021/08/05 09:59:29;;;;;;;5.85;3.13;;;;;;;21.55;56.16;100828.00;5032480;28;20028;-62
2021/08/05 10:02:08;;;;;;;4.78;3.17;;;;;;;21.57;55.99;100831.38;5031505;28;20029;-61
2021/08/05 10:04:35;;;;;;;5.10;3.45;;;;;;;21.59;55.92;100829.41;5032345;28;20485;-62
2021/08/05 10:07:07;;;;;;;5.22;3.75;;;;;;;21.60;55.63;100825.75;5031747;28;20397;-62
2021/08/05 10:09:34;;;;;;;6.03;4.05;;;;;;;21.62;55.28;100829.09;5031526;28;20052;-61
2021/08/05 10:12:15;;;;;;;6.80;4.43;;;;;;;21.63;54.59;100828.09;5032365;28;20458;-62
2021/08/05 10:14:41;;;;;;;6.28;4.57;;;;;;;21.64;54.75;100824.47;5036029;28;20033;-63
2021/08/05 10:17:08;;;;;;;5.40;3.97;;;;;;;21.66;54.84;100821.69;5037800;28;20470;-63
2021/08/05 10:19:41;;;;;;;6.30;3.90;;;;;;;21.63;54.90;100814.84;5038961;28;20029;-62
2021/08/05 10:22:09;;;;;;;6.40;3.75;;;;;;;21.62;55.13;100813.19;5039566;28;20025;-62
2021/08/05 10:24:43;;;;;;;5.82;3.70;;;;;;;21.65;55.24;100815.56;5037840;28;20481;-62
2021/08/05 10:27:10;;;;;;;5.13;3.50;;;;;;;21.65;55.26;100810.25;5038543;28;20501;-64
2021/08/05 10:29:38;;;;;;;5.15;3.42;;;;;;;21.66;55.28;100808.41;5039016;28;20041;-63
2021/08/05 10:32:05;;;;;;;5.40;3.92;;;;;;;21.66;55.54;100811.06;5042055;28;20044;-61
2021/08/05 10:34:32;;;;;;;5.93;3.85;;;;;;;21.68;55.84;100815.25;5039017;28;20473;-63
2021/08/05 10:36:59;;;;;;;5.95;4.13;;;;;;;21.65;55.96;100810.25;5037230;28;20025;-63
2021/08/05 10:39:24;;;;;;;4.70;3.70;;;;;;;21.65;55.94;100812.03;5038812;28;20090;-63
2021/08/05 10:41:50;;;;;;;6.05;3.97;;;;;;;21.62;55.82;100813.19;5038022;28;20533;-64
2021/08/05 10:44:15;;;;;;;6.05;4.00;;;;;;;21.61;55.82;100811.50;5037807;28;20063;-62
2021/08/05 10:46:42;;;;;;;5.93;4.55;;;;;;;21.56;56.61;100798.69;5038320;28;20397;-60
2021/08/05 10:49:08;;;;;;;7.03;4.55;;;;;;;21.58;56.60;100808.34;5038199;28;20022;-63
2021/08/05 10:51:40;;;;;;;6.47;4.85;;;;;;;21.55;56.82;100807.66;5037508;28;20033;-64
2021/08/05 10:54:06;;;;;;;9.73;5.05;;;;;;;21.54;57.39;100803.31;5037693;28;20492;-61
2021/08/05 10:56:31;;;;;;;7.43;4.38;;;;;;;21.54;57.24;100794.53;5038546;28;20042;-61
2021/08/05 10:59:15;;;;;;;6.30;4.45;;;;;;;21.54;57.36;100799.84;5037613;28;20350;-63
2021/08/05 11:01:48;;;;;;;8.10;4.88;;;;;;;21.53;57.42;100800.81;5038320;28;20029;-61
2021/08/05 11:04:39;;;;;;;6.95;4.47;;;;;;;21.54;57.45;100805.16;5038347;28;20386;-63
2021/08/05 11:07:24;;;;;;;7.75;4.90;;;;;;;21.52;57.96;100792.03;5037363;28;20144;-63
2021/08/05 11:09:51;;;;;;;7.18;4.80;;;;;;;21.51;57.60;100793.00;5037880;28;20389;-64
2021/08/05 11:12:39;;;;;;;6.90;4.95;;;;;;;21.52;57.88;100791.19;5037425;28;20037;-62
2021/08/05 11:15:30;;;;;;;7.03;5.03;;;;;;;21.51;57.83;100792.19;5037965;28;20041;-63
2021/08/05 11:18:10;;;;;;;6.65;5.38;;;;;;;21.51;58.15;100793.00;5037755;28;20041;-64
2021/08/05 11:20:37;;;;;;;6.80;4.68;;;;;;;21.50;58.23;100783.38;5037809;28;20022;-64
2021/08/05 11:23:03;;;;;;;6.13;5.07;;;;;;;21.51;58.23;100787.72;5038420;28;20040;-64
2021/08/05 11:25:51;;;;;;;8.30;5.30;;;;;;;21.52;58.23;100780.59;5037654;28;20425;-64